sensor_id;sensor_type;location;lat;lon;timestamp;pressure;altitude;pressure_sealevel;temperature;humidity
70445;BME280;57902;49.638;11.070;2023-05-10T00:16:58;97509.75;;;14.68;63.05
70445;BME280;57902;49.638;11.070;2023-05-10T00:19:25;97517.81;;;14.64;63.40
70445;BME280;57902;49.638;11.070;2023-05-10T00:21:51;97508.88;;;14.53;65.62
70445;BME280;57902;49.638;11.070;2023-05-10T00:24:18;97508.19;;;14.50;65.98
70445;BME280;57902;49.638;11.070;2023-05-10T00:26:44;97506.06;;;14.42;68.88
70445;BME280;57902;49.638;11.070;2023-05-10T00:29:11;97505.88;;;14.45;66.07
70445;BME280;57902;49.638;11.070;2023-05-10T00:31:37;97510.47;;;14.26;69.18
70445;BME280;57902;49.638;11.070;2023-05-10T00:34:04;97507.97;;;14.24;70.26
70445;BME280;57902;49.638;11.070;2023-05-10T00:36:30;97515.00;;;14.06;72.54
70445;BME280;57902;49.638;11.070;2023-05-10T00:38:58;97521.34;;;14.00;74.71
70445;BME280;57902;49.638;11.070;2023-05-10T00:41:24;97520.19;;;13.90;76.45
70445;BME280;57902;49.638;11.070;2023-05-10T00:43:51;97515.00;;;13.90;79.29
70445;BME280;57902;49.638;11.070;2023-05-10T00:46:18;97524.97;;;13.82;80.87
70445;BME280;57902;49.638;11.070;2023-05-10T00:48:44;97516.34;;;13.81;79.97
70445;BME280;57902;49.638;11.070;2023-05-10T00:51:11;97515.03;;;13.74;78.24
70445;BME280;57902;49.638;11.070;2023-05-10T00:53:38;97515.88;;;13.75;81.03
70445;BME280;57902;49.638;11.070;2023-05-10T00:56:04;97512.53;;;13.73;79.26
70445;BME280;57902;49.638;11.070;2023-05-10T00:58:31;97510.78;;;13.73;80.77
70445;BME280;57902;49.638;11.070;2023-05-10T01:00:58;97516.28;;;13.67;81.39
70445;BME280;57902;49.638;11.070;2023-05-10T01:03:25;97517.03;;;13.69;80.03
70445;BME280;57902;49.638;11.070;2023-05-10T01:05:52;97507.59;;;13.68;81.04
70445;BME280;57902;49.638;11.070;2023-05-10T01:08:19;97513.03;;;13.63;82.36
70445;BME280;57902;49.638;11.070;2023-05-10T01:10:46;97512.75;;;13.52;85.07
70445;BME280;57902;49.638;11.070;2023-05-10T01:13:23;97512.19;;;13.47;86.82
70445;BME280;57902;49.638;11.070;2023-05-10T01:15:54;97509.50;;;13.48;89.91
70445;BME280;57902;49.638;11.070;2023-05-10T01:18:21;97502.66;;;13.47;90.60
70445;BME280;57902;49.638;11.070;2023-05-10T01:21:17;97512.00;;;13.34;90.09
70445;BME280;57902;49.638;11.070;2023-05-10T01:24:06;97507.44;;;13.39;89.28
70445;BME280;57902;49.638;11.070;2023-05-10T01:32:35;97507.72;;;13.33;95.89
70445;BME280;57902;49.638;11.070;2023-05-10T01:37:55;97505.13;;;13.33;95.77
70445;BME280;57902;49.638;11.070;2023-05-10T01:41:13;97505.13;;;13.33;97.97
70445;BME280;57902;49.638;11.070;2023-05-10T01:43:22;97507.88;;;13.30;98.40
70445;BME280;57902;49.638;11.070;2023-05-10T01:45:59;97509.41;;;13.34;96.96
70445;BME280;57902;49.638;11.070;2023-05-10T01:48:28;97503.88;;;13.24;100.00
70445;BME280;57902;49.638;11.070;2023-05-10T01:50:56;97510.63;;;13.27;100.00
70445;BME280;57902;49.638;11.070;2023-05-10T01:53:23;97504.53;;;13.28;100.00
70445;BME280;57902;49.638;11.070;2023-05-10T01:55:52;97509.78;;;13.26;100.00
70445;BME280;57902;49.638;11.070;2023-05-10T01:58:27;97509.72;;;13.28;100.00
70445;BME280;57902;49.638;11.070;2023-05-10T02:00:55;97510.78;;;13.24;100.00
70445;BME280;57902;49.638;11.070;2023-05-10T02:03:24;97515.13;;;13.23;100.00
70445;BME280;57902;49.638;11.070;2023-05-10T02:05:53;97516.91;;;13.23;100.00
70445;BME280;57902;49.638;11.070;2023-05-10T02:08:23;97516.38;;;13.16;100.00
70445;BME280;57902;49.638;11.070;2023-05-10T02:10:52;97511.94;;;13.18;100.00
70445;BME280;57902;49.638;11.070;2023-05-10T02:13:21;97514.31;;;13.23;100.00
70445;BME280;57902;49.638;11.070;2023-05-10T02:15:50;97509.19;;;13.21;100.00
70445;BME280;57902;49.638;11.070;2023-05-10T02:18:18;97515.97;;;13.24;100.00
70445;BME280;57902;49.638;11.070;2023-05-10T02:20:46;97507.94;;;13.28;100.00
70445;BME280;57902;49.638;11.070;2023-05-10T02:23:13;97510.78;;;13.24;100.00
70445;BME280;57902;49.638;11.070;2023-05-10T02:25:43;97516.56;;;13.29;100.00
70445;BME280;57902;49.638;11.070;2023-05-10T02:28:09;97514.59;;;13.34;100.00
70445;BME280;57902;49.638;11.070;2023-05-10T02:30:36;97513.91;;;13.30;100.00
70445;BME280;57902;49.638;11.070;2023-05-10T02:33:05;97510.44;;;13.30;100.00
70445;BME280;57902;49.638;11.070;2023-05-10T02:35:32;97511.41;;;13.29;100.00
70445;BME280;57902;49.638;11.070;2023-05-10T02:37:59;97518.78;;;13.19;100.00
70445;BME280;57902;49.638;11.070;2023-05-10T02:40:27;97516.44;;;13.15;100.00
70445;BME280;57902;49.638;11.070;2023-05-10T02:42:56;97515.63;;;13.14;100.00
70445;BME280;57902;49.638;11.070;2023-05-10T02:45:25;97520.94;;;13.11;100.00
70445;BME280;57902;49.638;11.070;2023-05-10T02:47:54;97516.88;;;13.07;100.00
70445;BME280;57902;49.638;11.070;2023-05-10T02:50:22;97508.16;;;13.08;100.00
70445;BME280;57902;49.638;11.070;2023-05-10T02:52:51;97507.63;;;13.19;100.00
70445;BME280;57902;49.638;11.070;2023-05-10T02:55:22;97517.03;;;13.20;100.00
70445;BME280;57902;49.638;11.070;2023-05-10T02:57:56;97522.97;;;13.22;100.00
70445;BME280;57902;49.638;11.070;2023-05-10T03:00:24;97522.91;;;13.23;100.00
70445;BME280;57902;49.638;11.070;2023-05-10T03:02:51;97525.25;;;13.28;100.00
70445;BME280;57902;49.638;11.070;2023-05-10T03:05:19;97525.63;;;13.38;100.00
70445;BME280;57902;49.638;11.070;2023-05-10T03:07:45;97528.06;;;13.41;100.00
70445;BME280;57902;49.638;11.070;2023-05-10T03:10:13;97532.81;;;13.48;100.00
70445;BME280;57902;49.638;11.070;2023-05-10T03:17:50;97524.63;;;13.56;100.00
70445;BME280;57902;49.638;11.070;2023-05-10T03:20:24;97529.81;;;13.56;100.00
70445;BME280;57902;49.638;11.070;2023-05-10T03:22:55;97536.91;;;13.53;100.00
70445;BME280;57902;49.638;11.070;2023-05-10T03:25:26;97535.16;;;13.53;100.00
70445;BME280;57902;49.638;11.070;2023-05-10T03:27:54;97543.09;;;13.50;100.00
70445;BME280;57902;49.638;11.070;2023-05-10T03:30:23;97541.50;;;13.47;100.00
70445;BME280;57902;49.638;11.070;2023-05-10T03:32:50;97540.50;;;13.50;100.00
70445;BME280;57902;49.638;11.070;2023-05-10T03:35:17;97542.09;;;13.53;100.00
70445;BME280;57902;49.638;11.070;2023-05-10T03:37:43;97542.19;;;13.51;100.00
70445;BME280;57902;49.638;11.070;2023-05-10T03:40:10;97546.66;;;13.47;100.00
70445;BME280;57902;49.638;11.070;2023-05-10T03:42:37;97550.78;;;13.52;100.00
70445;BME280;57902;49.638;11.070;2023-05-10T03:45:04;97555.03;;;13.53;100.00
70445;BME280;57902;49.638;11.070;2023-05-10T03:47:31;97549.78;;;13.54;100.00
70445;BME280;57902;49.638;11.070;2023-05-10T03:49:58;97552.28;;;13.56;100.00
70445;BME280;57902;49.638;11.070;2023-05-10T03:52:25;97553.28;;;13.53;100.00
70445;BME280;57902;49.638;11.070;2023-05-10T03:54:51;97552.47;;;13.53;100.00
70445;BME280;57902;49.638;11.070;2023-05-10T03:57:18;97555.13;;;13.51;100.00
70445;BME280;57902;49.638;11.070;2023-05-10T03:59:44;97556.78;;;13.52;100.00
70445;BME280;57902;49.638;11.070;2023-05-10T04:02:11;97562.91;;;13.51;100.00
70445;BME280;57902;49.638;11.070;2023-05-10T04:04:37;97566.47;;;13.48;100.00
70445;BME280;57902;49.638;11.070;2023-05-10T04:07:04;97563.16;;;13.46;100.00
70445;BME280;57902;49.638;11.070;2023-05-10T04:09:30;97569.97;;;13.47;100.00
70445;BME280;57902;49.638;11.070;2023-05-10T04:11:58;97573.91;;;13.55;100.00
70445;BME280;57902;49.638;11.070;2023-05-10T04:14:25;97575.94;;;13.50;100.00
70445;BME280;57902;49.638;11.070;2023-05-10T04:16:51;97574.16;;;13.50;100.00
70445;BME280;57902;49.638;11.070;2023-05-10T04:19:18;97571.81;;;13.45;100.00
70445;BME280;57902;49.638;11.070;2023-05-10T04:21:44;97581.09;;;13.50;100.00
70445;BME280;57902;49.638;11.070;2023-05-10T04:24:11;97582.00;;;13.48;100.00
70445;BME280;57902;49.638;11.070;2023-05-10T04:26:38;97583.19;;;13.59;100.00
70445;BME280;57902;49.638;11.070;2023-05-10T04:29:05;97586.03;;;13.54;100.00
70445;BME280;57902;49.638;11.070;2023-05-10T04:31:31;97579.94;;;13.55;100.00
70445;BME280;57902;49.638;11.070;2023-05-10T04:33:58;97579.44;;;13.64;100.00
70445;BME280;57902;49.638;11.070;2023-05-10T04:36:25;97588.22;;;13.62;100.00
70445;BME280;57902;49.638;11.070;2023-05-10T04:38:51;97586.41;;;13.64;100.00
70445;BME280;57902;49.638;11.070;2023-05-10T04:41:18;97590.72;;;13.63;100.00
70445;BME280;57902;49.638;11.070;2023-05-10T04:43:44;97595.97;;;13.62;100.00
70445;BME280;57902;49.638;11.070;2023-05-10T04:46:10;97599.72;;;13.56;100.00
70445;BME280;57902;49.638;11.070;2023-05-10T04:48:37;97596.22;;;13.57;100.00
70445;BME280;57902;49.638;11.070;2023-05-10T04:51:03;97595.41;;;13.57;100.00
70445;BME280;57902;49.638;11.070;2023-05-10T04:53:31;97603.16;;;13.57;100.00
70445;BME280;57902;49.638;11.070;2023-05-10T04:55:57;97609.00;;;13.60;100.00
70445;BME280;57902;49.638;11.070;2023-05-10T04:58:24;97606.91;;;13.51;100.00
70445;BME280;57902;49.638;11.070;2023-05-10T05:00:50;97610.09;;;13.56;100.00
70445;BME280;57902;49.638;11.070;2023-05-10T05:03:17;97621.31;;;13.57;100.00
70445;BME280;57902;49.638;11.070;2023-05-10T05:05:53;97616.28;;;13.54;100.00
70445;BME280;57902;49.638;11.070;2023-05-10T05:08:19;97621.59;;;13.51;100.00
70445;BME280;57902;49.638;11.070;2023-05-10T05:10:47;97627.78;;;13.48;100.00
70445;BME280;57902;49.638;11.070;2023-05-10T05:13:16;97633.97;;;13.45;100.00
70445;BME280;57902;49.638;11.070;2023-05-10T05:15:43;97632.28;;;13.44;100.00
70445;BME280;57902;49.638;11.070;2023-05-10T05:18:09;97633.63;;;13.52;100.00
70445;BME280;57902;49.638;11.070;2023-05-10T05:20:36;97634.28;;;13.39;100.00
70445;BME280;57902;49.638;11.070;2023-05-10T05:23:02;97633.22;;;13.43;100.00
70445;BME280;57902;49.638;11.070;2023-05-10T05:25:28;97644.63;;;13.39;100.00
70445;BME280;57902;49.638;11.070;2023-05-10T05:27:55;97644.63;;;13.39;100.00
70445;BME280;57902;49.638;11.070;2023-05-10T05:30:22;97642.53;;;13.28;100.00
70445;BME280;57902;49.638;11.070;2023-05-10T05:32:48;97640.97;;;13.26;100.00
70445;BME280;57902;49.638;11.070;2023-05-10T05:35:15;97650.09;;;13.33;100.00
70445;BME280;57902;49.638;11.070;2023-05-10T05:37:42;97654.06;;;13.40;100.00
70445;BME280;57902;49.638;11.070;2023-05-10T05:40:12;97649.81;;;13.39;100.00
70445;BME280;57902;49.638;11.070;2023-05-10T05:42:39;97652.31;;;13.41;100.00
70445;BME280;57902;49.638;11.070;2023-05-10T05:45:06;97650.31;;;13.46;100.00
70445;BME280;57902;49.638;11.070;2023-05-10T05:47:32;97653.59;;;13.50;100.00
70445;BME280;57902;49.638;11.070;2023-05-10T05:49:59;97653.28;;;13.56;100.00
70445;BME280;57902;49.638;11.070;2023-05-10T05:52:25;97654.47;;;13.66;100.00
70445;BME280;57902;49.638;11.070;2023-05-10T05:54:52;97661.91;;;13.72;100.00
70445;BME280;57902;49.638;11.070;2023-05-10T05:57:18;97671.13;;;13.78;100.00
70445;BME280;57902;49.638;11.070;2023-05-10T05:59:45;97666.69;;;13.80;100.00
70445;BME280;57902;49.638;11.070;2023-05-10T06:02:12;97664.28;;;13.93;100.00
70445;BME280;57902;49.638;11.070;2023-05-10T06:04:39;97673.66;;;13.95;100.00
70445;BME280;57902;49.638;11.070;2023-05-10T06:07:09;97670.25;;;13.95;100.00
70445;BME280;57902;49.638;11.070;2023-05-10T06:09:36;97669.47;;;13.93;100.00
70445;BME280;57902;49.638;11.070;2023-05-10T06:12:02;97681.84;;;13.88;100.00
70445;BME280;57902;49.638;11.070;2023-05-10T06:17:44;97686.38;;;14.00;100.00
70445;BME280;57902;49.638;11.070;2023-05-10T06:23:31;97695.44;;;14.25;100.00
70445;BME280;57902;49.638;11.070;2023-05-10T06:26:06;97700.09;;;14.34;100.00
70445;BME280;57902;49.638;11.070;2023-05-10T06:28:43;97704.38;;;14.35;100.00
70445;BME280;57902;49.638;11.070;2023-05-10T06:31:15;97705.31;;;14.50;100.00
70445;BME280;57902;49.638;11.070;2023-05-10T06:36:49;97700.88;;;14.68;100.00
70445;BME280;57902;49.638;11.070;2023-05-10T06:39:53;97713.09;;;14.82;100.00
70445;BME280;57902;49.638;11.070;2023-05-10T06:42:33;97707.00;;;14.83;100.00
70445;BME280;57902;49.638;11.070;2023-05-10T06:45:00;97715.34;;;14.88;100.00
70445;BME280;57902;49.638;11.070;2023-05-10T06:47:30;97712.28;;;15.12;100.00
70445;BME280;57902;49.638;11.070;2023-05-10T06:49:58;97714.09;;;15.26;100.00
70445;BME280;57902;49.638;11.070;2023-05-10T06:52:31;97712.03;;;15.31;100.00
70445;BME280;57902;49.638;11.070;2023-05-10T06:55:25;97714.13;;;15.54;100.00
70445;BME280;57902;49.638;11.070;2023-05-10T06:58:19;97715.13;;;15.82;100.00
70445;BME280;57902;49.638;11.070;2023-05-10T07:01:10;97715.41;;;16.06;96.52
70445;BME280;57902;49.638;11.070;2023-05-10T07:07:04;97717.16;;;16.06;96.71
70445;BME280;57902;49.638;11.070;2023-05-10T07:09:34;97714.75;;;16.17;96.09
70445;BME280;57902;49.638;11.070;2023-05-10T07:12:04;97714.06;;;16.28;93.48
70445;BME280;57902;49.638;11.070;2023-05-10T07:14:38;97717.84;;;16.51;91.42
70445;BME280;57902;49.638;11.070;2023-05-10T07:17:22;97725.81;;;16.62;92.23
70445;BME280;57902;49.638;11.070;2023-05-10T07:19:52;97725.22;;;16.72;88.83
70445;BME280;57902;49.638;11.070;2023-05-10T07:22:47;97727.81;;;16.72;87.77
70445;BME280;57902;49.638;11.070;2023-05-10T07:25:21;97725.78;;;16.77;85.03
70445;BME280;57902;49.638;11.070;2023-05-10T07:27:51;97727.53;;;16.49;85.89
70445;BME280;57902;49.638;11.070;2023-05-10T07:30:23;97727.31;;;16.52;86.33
70445;BME280;57902;49.638;11.070;2023-05-10T07:32:54;97730.72;;;16.67;86.66
70445;BME280;57902;49.638;11.070;2023-05-10T07:35:45;97735.09;;;16.67;89.98
70445;BME280;57902;49.638;11.070;2023-05-10T07:38:29;97732.22;;;16.71;87.94
70445;BME280;57902;49.638;11.070;2023-05-10T07:40:58;97734.06;;;16.69;85.09
70445;BME280;57902;49.638;11.070;2023-05-10T07:43:36;97736.94;;;16.65;84.05
70445;BME280;57902;49.638;11.070;2023-05-10T07:46:25;97739.78;;;16.47;87.04
70445;BME280;57902;49.638;11.070;2023-05-10T07:49:04;97740.34;;;16.38;85.91
70445;BME280;57902;49.638;11.070;2023-05-10T07:51:45;97739.97;;;16.30;86.41
70445;BME280;57902;49.638;11.070;2023-05-10T07:57:47;97746.03;;;15.87;87.44
70445;BME280;57902;49.638;11.070;2023-05-10T08:26:09;97773.06;;;15.84;87.74
70445;BME280;57902;49.638;11.070;2023-05-10T08:28:36;97779.34;;;15.80;87.47
70445;BME280;57902;49.638;11.070;2023-05-10T08:31:09;97775.13;;;15.78;89.07
70445;BME280;57902;49.638;11.070;2023-05-10T08:33:56;97779.44;;;15.79;89.22
70445;BME280;57902;49.638;11.070;2023-05-10T08:36:22;97778.34;;;15.83;88.58
70445;BME280;57902;49.638;11.070;2023-05-10T08:38:52;97788.38;;;15.89;87.96
70445;BME280;57902;49.638;11.070;2023-05-10T08:41:20;97774.91;;;15.97;88.60
70445;BME280;57902;49.638;11.070;2023-05-10T08:54:36;97783.28;;;16.16;84.90
70445;BME280;57902;49.638;11.070;2023-05-10T08:57:35;97795.72;;;16.11;84.71
70445;BME280;57902;49.638;11.070;2023-05-10T09:00:15;97797.31;;;16.14;84.23
70445;BME280;57902;49.638;11.070;2023-05-10T09:03:30;97791.84;;;16.18;84.59
70445;BME280;57902;49.638;11.070;2023-05-10T09:06:18;97805.75;;;16.03;92.94
70445;BME280;57902;49.638;11.070;2023-05-10T09:08:45;97812.22;;;15.96;93.15
70445;BME280;57902;49.638;11.070;2023-05-10T09:11:16;97814.16;;;15.62;94.99
70445;BME280;57902;49.638;11.070;2023-05-10T09:13:48;97808.53;;;15.39;96.77
70445;BME280;57902;49.638;11.070;2023-05-10T09:17:00;97814.03;;;15.49;97.09
70445;BME280;57902;49.638;11.070;2023-05-10T09:19:30;97804.69;;;15.46;96.78
70445;BME280;57902;49.638;11.070;2023-05-10T09:21:56;97810.97;;;15.42;97.13
70445;BME280;57902;49.638;11.070;2023-05-10T09:24:26;97802.25;;;15.43;100.00
70445;BME280;57902;49.638;11.070;2023-05-10T09:26:56;97812.50;;;15.61;97.45
70445;BME280;57902;49.638;11.070;2023-05-10T09:29:23;97810.63;;;15.79;98.76
70445;BME280;57902;49.638;11.070;2023-05-10T09:31:51;97808.16;;;16.06;98.67
70445;BME280;57902;49.638;11.070;2023-05-10T09:34:19;97808.66;;;16.27;96.37
70445;BME280;57902;49.638;11.070;2023-05-10T09:37:02;97805.56;;;16.49;96.68
70445;BME280;57902;49.638;11.070;2023-05-10T09:40:20;97804.59;;;16.93;93.58
70445;BME280;57902;49.638;11.070;2023-05-10T09:43:01;97807.22;;;17.21;91.07
70445;BME280;57902;49.638;11.070;2023-05-10T09:45:30;97809.63;;;17.64;94.70
70445;BME280;57902;49.638;11.070;2023-05-10T09:48:03;97811.69;;;18.12;90.55
70445;BME280;57902;49.638;11.070;2023-05-10T09:50:30;97805.50;;;18.51;83.20
70445;BME280;57902;49.638;11.070;2023-05-10T09:52:58;97803.34;;;18.82;80.55
70445;BME280;57902;49.638;11.070;2023-05-10T09:55:39;97802.88;;;19.01;77.74
70445;BME280;57902;49.638;11.070;2023-05-10T09:58:06;97806.06;;;19.18;76.89
70445;BME280;57902;49.638;11.070;2023-05-10T10:00:58;97809.16;;;19.23;73.79
70445;BME280;57902;49.638;11.070;2023-05-10T10:03:34;97810.50;;;19.04;74.55
70445;BME280;57902;49.638;11.070;2023-05-10T10:06:37;97804.59;;;19.14;67.67
70445;BME280;57902;49.638;11.070;2023-05-10T10:09:09;97804.38;;;18.93;67.93
70445;BME280;57902;49.638;11.070;2023-05-10T10:11:53;97799.16;;;18.80;66.98
70445;BME280;57902;49.638;11.070;2023-05-10T10:14:34;97797.03;;;18.85;71.28
70445;BME280;57902;49.638;11.070;2023-05-10T10:17:24;97806.63;;;19.10;71.43
70445;BME280;57902;49.638;11.070;2023-05-10T10:19:54;97792.31;;;19.51;66.34
70445;BME280;57902;49.638;11.070;2023-05-10T10:34:08;97801.78;;;19.88;60.34
70445;BME280;57902;49.638;11.070;2023-05-10T10:36:46;97795.16;;;19.59;60.62
70445;BME280;57902;49.638;11.070;2023-05-10T10:39:18;97790.31;;;19.31;62.27
70445;BME280;57902;49.638;11.070;2023-05-10T10:41:52;97791.09;;;19.20;61.20
70445;BME280;57902;49.638;11.070;2023-05-10T10:47:30;97783.09;;;18.73;62.83
70445;BME280;57902;49.638;11.070;2023-05-10T10:50:18;97784.88;;;18.73;61.88
70445;BME280;57902;49.638;11.070;2023-05-10T10:52:45;97782.75;;;18.78;61.14
70445;BME280;57902;49.638;11.070;2023-05-10T10:55:18;97788.28;;;18.49;62.95
70445;BME280;57902;49.638;11.070;2023-05-10T10:57:51;97783.09;;;18.73;62.23
70445;BME280;57902;49.638;11.070;2023-05-10T11:00:28;97789.78;;;18.64;61.88
70445;BME280;57902;49.638;11.070;2023-05-10T11:03:01;97787.41;;;18.61;63.25
70445;BME280;57902;49.638;11.070;2023-05-10T11:07:58;97781.72;;;18.80;59.69
70445;BME280;57902;49.638;11.070;2023-05-10T11:10:26;97772.47;;;18.63;62.88
70445;BME280;57902;49.638;11.070;2023-05-10T11:15:28;97777.75;;;18.75;61.83
70445;BME280;57902;49.638;11.070;2023-05-10T11:17:55;97780.13;;;18.91;63.73
70445;BME280;57902;49.638;11.070;2023-05-10T11:20:22;97778.31;;;19.04;62.66
70445;BME280;57902;49.638;11.070;2023-05-10T11:22:54;97781.38;;;19.22;62.43
70445;BME280;57902;49.638;11.070;2023-05-10T11:25:26;97774.41;;;19.34;60.76
70445;BME280;57902;49.638;11.070;2023-05-10T11:27:53;97789.19;;;19.46;60.61
70445;BME280;57902;49.638;11.070;2023-05-10T11:30:19;97784.00;;;19.69;60.53
70445;BME280;57902;49.638;11.070;2023-05-10T11:32:46;97783.53;;;19.64;60.50
70445;BME280;57902;49.638;11.070;2023-05-10T11:35:13;97792.09;;;19.66;59.63
70445;BME280;57902;49.638;11.070;2023-05-10T11:37:42;97795.22;;;19.35;59.98
70445;BME280;57902;49.638;11.070;2023-05-10T11:40:21;97795.06;;;19.01;61.47
70445;BME280;57902;49.638;11.070;2023-05-10T11:42:50;97791.75;;;18.86;63.50
70445;BME280;57902;49.638;11.070;2023-05-10T11:45:26;97795.91;;;18.89;60.88
70445;BME280;57902;49.638;11.070;2023-05-10T11:47:59;97793.38;;;18.63;61.87
70445;BME280;57902;49.638;11.070;2023-05-10T11:50:26;97798.50;;;18.52;62.33
70445;BME280;57902;49.638;11.070;2023-05-10T11:52:54;97805.06;;;18.45;64.40
70445;BME280;57902;49.638;11.070;2023-05-10T11:55:21;97803.84;;;18.38;64.30
70445;BME280;57902;49.638;11.070;2023-05-10T11:57:51;97808.00;;;18.27;65.61
70445;BME280;57902;49.638;11.070;2023-05-10T12:00:20;97814.16;;;18.26;66.23
70445;BME280;57902;49.638;11.070;2023-05-10T12:02:47;97804.97;;;18.33;65.55
70445;BME280;57902;49.638;11.070;2023-05-10T12:05:14;97806.75;;;18.46;63.84
70445;BME280;57902;49.638;11.070;2023-05-10T12:07:43;97801.22;;;18.38;64.62
70445;BME280;57902;49.638;11.070;2023-05-10T12:10:13;97806.22;;;18.41;63.89
70445;BME280;57902;49.638;11.070;2023-05-10T12:12:56;97804.25;;;18.18;66.58
70445;BME280;57902;49.638;11.070;2023-05-10T12:15:24;97804.69;;;18.25;65.60
70445;BME280;57902;49.638;11.070;2023-05-10T12:17:51;97806.97;;;18.17;67.01
70445;BME280;57902;49.638;11.070;2023-05-10T12:20:19;97803.34;;;18.32;65.31
70445;BME280;57902;49.638;11.070;2023-05-10T12:22:50;97807.16;;;18.40;63.66
70445;BME280;57902;49.638;11.070;2023-05-10T12:25:18;97811.34;;;18.42;63.92
70445;BME280;57902;49.638;11.070;2023-05-10T12:27:52;97807.38;;;18.36;63.05
70445;BME280;57902;49.638;11.070;2023-05-10T12:30:24;97802.69;;;18.29;64.32
70445;BME280;57902;49.638;11.070;2023-05-10T12:32:52;97805.28;;;18.54;64.04
70445;BME280;57902;49.638;11.070;2023-05-10T12:35:18;97811.09;;;18.58;63.47
70445;BME280;57902;49.638;11.070;2023-05-10T12:37:50;97814.63;;;18.70;63.40
70445;BME280;57902;49.638;11.070;2023-05-10T12:40:17;97817.31;;;18.81;63.63
70445;BME280;57902;49.638;11.070;2023-05-10T12:42:44;97820.75;;;18.82;64.54
70445;BME280;57902;49.638;11.070;2023-05-10T12:45:11;97814.59;;;18.83;61.56
70445;BME280;57902;49.638;11.070;2023-05-10T12:47:38;97814.19;;;18.89;61.90
70445;BME280;57902;49.638;11.070;2023-05-10T12:50:08;97814.25;;;18.63;64.01
70445;BME280;57902;49.638;11.070;2023-05-10T12:52:35;97810.75;;;18.88;62.81
70445;BME280;57902;49.638;11.070;2023-05-10T12:55:01;97806.03;;;18.94;62.15
70445;BME280;57902;49.638;11.070;2023-05-10T12:57:29;97809.41;;;18.70;64.88
70445;BME280;57902;49.638;11.070;2023-05-10T12:59:55;97802.25;;;18.85;64.45
70445;BME280;57902;49.638;11.070;2023-05-10T13:02:22;97816.31;;;18.71;64.75
70445;BME280;57902;49.638;11.070;2023-05-10T13:04:49;97805.66;;;18.87;63.51
70445;BME280;57902;49.638;11.070;2023-05-10T13:07:16;97811.44;;;19.03;61.24
70445;BME280;57902;49.638;11.070;2023-05-10T13:09:43;97806.31;;;19.02;62.41
70445;BME280;57902;49.638;11.070;2023-05-10T13:12:09;97807.16;;;19.02;62.73
70445;BME280;57902;49.638;11.070;2023-05-10T13:14:36;97799.31;;;19.02;61.73
70445;BME280;57902;49.638;11.070;2023-05-10T13:17:28;97802.03;;;19.01;65.23
70445;BME280;57902;49.638;11.070;2023-05-10T13:20:15;97808.22;;;19.00;62.17
70445;BME280;57902;49.638;11.070;2023-05-10T13:22:43;97807.78;;;19.06;62.37
70445;BME280;57902;49.638;11.070;2023-05-10T13:25:12;97807.09;;;19.15;63.98
70445;BME280;57902;49.638;11.070;2023-05-10T13:27:39;97799.56;;;19.23;61.35
70445;BME280;57902;49.638;11.070;2023-05-10T13:30:07;97804.44;;;19.28;62.78
70445;BME280;57902;49.638;11.070;2023-05-10T13:32:35;97812.72;;;19.22;61.54
70445;BME280;57902;49.638;11.070;2023-05-10T13:35:02;97806.13;;;18.92;64.69
70445;BME280;57902;49.638;11.070;2023-05-10T13:37:30;97813.56;;;18.85;63.49
70445;BME280;57902;49.638;11.070;2023-05-10T13:39:57;97807.56;;;18.59;65.72
70445;BME280;57902;49.638;11.070;2023-05-10T13:42:24;97814.75;;;18.56;66.75
70445;BME280;57902;49.638;11.070;2023-05-10T13:44:50;97807.09;;;18.28;72.75
70445;BME280;57902;49.638;11.070;2023-05-10T13:47:18;97810.00;;;18.24;75.10
70445;BME280;57902;49.638;11.070;2023-05-10T13:49:58;97811.97;;;18.20;75.13
70445;BME280;57902;49.638;11.070;2023-05-10T13:52:53;97814.63;;;17.67;78.78
70445;BME280;57902;49.638;11.070;2023-05-10T13:55:19;97806.16;;;17.51;80.13
70445;BME280;57902;49.638;11.070;2023-05-10T13:57:46;97807.53;;;17.56;85.54
70445;BME280;57902;49.638;11.070;2023-05-10T14:00:13;97803.78;;;17.60;82.47
70445;BME280;57902;49.638;11.070;2023-05-10T14:02:45;97800.00;;;17.52;86.18
70445;BME280;57902;49.638;11.070;2023-05-10T14:05:35;97800.63;;;17.55;81.37
70445;BME280;57902;49.638;11.070;2023-05-10T14:08:02;97799.91;;;17.53;81.13
70445;BME280;57902;49.638;11.070;2023-05-10T14:10:28;97802.69;;;17.50;81.92
70445;BME280;57902;49.638;11.070;2023-05-10T14:12:55;97797.09;;;17.56;80.77
70445;BME280;57902;49.638;11.070;2023-05-10T14:15:22;97796.06;;;17.72;80.45
70445;BME280;57902;49.638;11.070;2023-05-10T14:17:51;97801.63;;;17.80;79.75
70445;BME280;57902;49.638;11.070;2023-05-10T14:20:17;97801.09;;;17.88;80.55
70445;BME280;57902;49.638;11.070;2023-05-10T14:22:44;97810.53;;;17.90;75.49
70445;BME280;57902;49.638;11.070;2023-05-10T14:25:10;97801.56;;;17.54;78.75
70445;BME280;57902;49.638;11.070;2023-05-10T14:27:40;97797.56;;;17.36;79.81
70445;BME280;57902;49.638;11.070;2023-05-10T14:30:14;97798.91;;;17.28;80.14
70445;BME280;57902;49.638;11.070;2023-05-10T14:32:43;97803.44;;;17.12;82.28
70445;BME280;57902;49.638;11.070;2023-05-10T14:35:10;97804.19;;;17.00;84.03
70445;BME280;57902;49.638;11.070;2023-05-10T14:37:39;97800.88;;;16.98;85.58
70445;BME280;57902;49.638;11.070;2023-05-10T14:40:06;97803.56;;;16.96;84.87
70445;BME280;57902;49.638;11.070;2023-05-10T14:42:33;97797.72;;;16.92;83.06
70445;BME280;57902;49.638;11.070;2023-05-10T14:45:00;97803.94;;;16.90;82.09
70445;BME280;57902;49.638;11.070;2023-05-10T14:47:26;97799.19;;;16.96;82.46